Time;durP1;ratioP1;P1;durP2;ratioP2;P2;SDS_P1;SDS_P2;PMS_P1;PMS_P2;Temp;Humidity;BMP_temperature;BMP_pressure;BME280_temperature;BME280_humidity;BME280_pressure;Samples;Min_cycle;Max_cycle;Signal;HPM_P1;HPM_P2
2022/09/18 00:01:42;;;;;;;3.50;1.17;;;16.80;58.40;;;;;;4900614;29;20604;-54
2022/09/18 00:04:13;;;;;;;2.40;1.00;;;16.80;58.40;;;;;;4899841;29;20445;-54
2022/09/18 00:06:45;;;;;;;1.57;1.00;;;16.80;58.70;;;;;;4900481;29;20477;-54
2022/09/18 00:09:15;;;;;;;1.33;1.07;;;16.80;58.50;;;;;;4905547;29;20449;-54
2022/09/18 00:11:47;;;;;;;2.00;1.13;;;16.80;58.40;;;;;;4897121;29;20496;-53
2022/09/18 00:14:18;;;;;;;2.27;1.37;;;16.80;58.60;;;;;;4899555;29;20461;-54
2022/09/18 00:16:47;;;;;;;2.43;1.07;;;16.80;58.50;;;;;;4899413;29;20469;-53
2022/09/18 00:19:16;;;;;;;1.37;0.80;;;16.80;58.60;;;;;;4900212;29;20497;-54
2022/09/18 00:21:48;;;;;;;2.10;1.00;;;16.80;58.60;;;;;;4896721;29;20479;-54
2022/09/18 00:24:18;;;;;;;3.33;0.80;;;16.80;58.50;;;;;;4883542;29;20497;-55
2022/09/18 00:26:47;;;;;;;1.80;1.20;;;16.80;58.50;;;;;;4905084;29;20487;-52
2022/09/18 00:29:17;;;;;;;2.20;0.60;;;16.80;59.70;;;;;;4899537;29;20933;-54
2022/09/18 00:31:45;;;;;;;3.20;0.80;;;16.80;58.40;;;;;;4908282;29;20525;-54
2022/09/18 00:34:15;;;;;;;0.73;0.73;;;16.80;58.60;;;;;;4899531;29;20465;-54
2022/09/18 00:36:46;;;;;;;1.40;0.70;;;16.80;58.60;;;;;;4892414;29;20544;-53
2022/09/18 00:39:15;;;;;;;1.63;0.87;;;16.80;58.70;;;;;;4899856;29;20446;-54
2022/09/18 00:41:46;;;;;;;4.20;1.53;;;16.80;58.60;;;;;;4889420;29;20540;-53
2022/09/18 00:44:34;;;;;;;1.40;0.80;;;16.80;58.60;;;;;;4899366;29;20469;-54
2022/09/18 00:47:24;;;;;;;2.60;1.07;;;16.70;58.40;;;;;;4907569;29;20480;-55
2022/09/18 00:49:59;;;;;;;2.40;1.30;;;16.80;58.60;;;;;;4907492;29;20433;-53
2022/09/18 00:52:32;;;;;;;2.00;0.87;;;16.80;58.50;;;;;;4891343;29;20473;-54
2022/09/18 00:55:05;;;;;;;3.20;1.30;;;16.80;58.50;;;;;;4898897;29;20461;-53
2022/09/18 00:57:36;;;;;;;1.00;0.90;;;16.80;58.50;;;;;;4906557;29;20564;-53
2022/09/18 01:00:13;;;;;;;1.90;0.80;;;16.80;58.40;;;;;;4899073;29;20437;-53
2022/09/18 01:02:43;;;;;;;2.40;0.80;;;16.80;58.40;;;;;;4909709;29;20832;-53
2022/09/18 01:05:14;;;;;;;1.87;1.00;;;16.80;58.40;;;;;;4881792;29;20482;-51
2022/09/18 01:08:06;;;;;;;1.37;0.73;;;16.80;58.30;;;;;;4898456;29;20503;-54
2022/09/18 01:10:58;;;;;;;8.40;1.50;;;16.80;58.30;;;;;;4915401;29;20441;-53
2022/09/18 01:13:39;;;;;;;2.20;1.50;;;16.80;58.40;;;;;;4898573;29;20481;-55
2022/09/18 01:16:16;;;;;;;3.90;0.90;;;16.80;58.50;;;;;;4915114;29;20472;-53
2022/09/18 01:18:56;;;;;;;2.37;0.90;;;16.80;58.50;;;;;;4899209;29;20452;-54
2022/09/18 01:21:30;;;;;;;2.27;0.80;;;16.70;58.40;;;;;;4903154;29;20552;-53
2022/09/18 01:24:53;;;;;;;1.17;0.87;;;16.80;58.50;;;;;;4875612;29;20493;-53
2022/09/18 01:27:33;;;;;;;5.03;1.23;;;16.70;58.40;;;;;;4820759;29;20477;-53
2022/09/18 01:30:05;;;;;;;0.97;0.87;;;16.70;58.50;;;;;;4838079;29;20513;-54
2022/09/18 01:32:40;;;;;;;2.07;0.90;;;16.70;58.40;;;;;;4863253;29;20470;-55
2022/09/18 01:35:18;;;;;;;1.60;0.60;;;16.70;58.30;;;;;;4897824;29;20477;-53
2022/09/18 01:38:13;;;;;;;2.10;0.80;;;16.70;58.30;;;;;;4898299;29;20466;-53
2022/09/18 01:40:47;;;;;;;0.80;0.50;;;16.80;58.30;;;;;;4897340;29;20949;-54
2022/09/18 01:43:18;;;;;;;1.00;0.83;;;16.70;58.30;;;;;;4903375;29;20529;-54
2022/09/18 01:45:52;;;;;;;1.43;0.80;;;16.80;58.30;;;;;;4915903;29;20464;-54
2022/09/18 01:48:30;;;;;;;1.87;0.60;;;16.80;58.40;;;;;;4904078;29;20456;-53
2022/09/18 01:51:05;;;;;;;1.00;0.80;;;16.70;58.30;;;;;;4895343;29;20951;-54
2022/09/18 01:53:39;;;;;;;2.30;0.80;;;16.70;58.30;;;;;;4898071;29;20441;-54
2022/09/18 01:56:13;;;;;;;2.13;0.90;;;16.70;58.30;;;;;;4898266;29;20824;-54
2022/09/18 01:58:43;;;;;;;1.83;0.87;;;16.70;58.30;;;;;;4898095;29;20450;-54
2022/09/18 02:01:17;;;;;;;0.80;0.50;;;16.70;58.30;;;;;;4898099;29;21004;-54
2022/09/18 02:03:50;;;;;;;1.07;0.80;;;16.80;58.40;;;;;;4929716;23;20503;-71
2022/09/18 02:06:25;;;;;;;1.00;0.80;;;16.80;58.50;;;;;;4906468;29;20463;-71
2022/09/18 02:08:56;;;;;;;1.47;0.60;;;16.70;58.50;;;;;;4903917;29;20548;-71
2022/09/18 02:11:25;;;;;;;1.20;0.60;;;16.70;58.40;;;;;;4919926;29;20474;-73
2022/09/18 02:14:00;;;;;;;1.10;1.00;;;16.70;58.70;;;;;;4905912;29;20861;-72
2022/09/18 02:16:51;;;;;;;0.80;0.60;;;16.70;58.60;;;;;;4913727;29;20469;-72
2022/09/18 02:19:26;;;;;;;1.90;0.80;;;16.70;58.50;;;;;;4906482;29;20453;-72
2022/09/18 02:21:58;;;;;;;2.80;1.27;;;16.70;58.60;;;;;;4904722;29;20502;-72
2022/09/18 02:24:30;;;;;;;1.43;0.70;;;16.70;58.60;;;;;;4912524;29;20858;-72
2022/09/18 02:27:01;;;;;;;1.70;0.80;;;16.70;58.80;;;;;;4885354;29;20481;-72
2022/09/18 02:29:31;;;;;;;1.10;0.93;;;16.70;58.60;;;;;;4913172;29;20832;-72
2022/09/18 02:32:02;;;;;;;1.00;0.87;;;16.70;58.80;;;;;;4921666;29;20575;-72
2022/09/18 02:34:33;;;;;;;1.30;0.80;;;16.70;58.90;;;;;;4929894;29;20821;-72
2022/09/18 02:37:21;;;;;;;1.73;0.70;;;16.70;58.90;;;;;;4908482;29;20863;-72
2022/09/18 02:40:02;;;;;;;2.00;0.70;;;16.70;58.90;;;;;;4930214;29;20440;-72
2022/09/18 02:42:41;;;;;;;0.97;0.60;;;16.70;58.90;;;;;;4921351;28;20862;-72
2022/09/18 02:45:21;;;;;;;1.53;1.00;;;16.70;59.00;;;;;;4912485;29;21044;-72
2022/09/18 02:48:15;;;;;;;1.33;0.90;;;16.70;58.80;;;;;;4908311;29;20486;-72
2022/09/18 02:50:55;;;;;;;0.90;0.60;;;16.70;58.80;;;;;;4918006;29;20457;-72
2022/09/18 02:53:29;;;;;;;1.00;0.70;;;16.70;58.90;;;;;;4901747;29;20473;-72
2022/09/18 02:56:02;;;;;;;1.23;0.80;;;16.70;58.80;;;;;;4886133;29;20503;-72
2022/09/18 02:58:39;;;;;;;1.83;0.90;;;16.70;58.90;;;;;;4918518;29;20871;-72
2022/09/18 03:01:11;;;;;;;2.73;0.97;;;16.70;58.70;;;;;;4917178;29;20448;-72
2022/09/18 03:03:42;;;;;;;1.90;0.80;;;16.70;59.00;;;;;;4918601;29;20504;-72
2022/09/18 03:06:12;;;;;;;2.07;0.83;;;16.70;59.00;;;;;;4909672;29;20861;-72
2022/09/18 03:08:41;;;;;;;1.33;0.93;;;16.70;58.80;;;;;;4926973;29;20532;-72
2022/09/18 03:11:10;;;;;;;1.13;0.50;;;16.70;58.90;;;;;;4901530;29;20457;-72
2022/09/18 03:13:38;;;;;;;0.97;0.80;;;16.70;58.90;;;;;;4914755;29;20512;-72
2022/09/18 03:16:06;;;;;;;1.00;0.80;;;16.70;59.00;;;;;;4929475;29;20463;-72
2022/09/18 03:18:35;;;;;;;1.57;0.80;;;16.70;58.90;;;;;;4918256;29;20437;-72
2022/09/18 03:21:05;;;;;;;1.30;0.67;;;16.70;59.00;;;;;;4913411;29;20468;-72
2022/09/18 03:23:36;;;;;;;1.30;0.67;;;16.70;59.00;;;;;;4912139;29;20480;-72
2022/09/18 03:26:17;;;;;;;2.30;0.77;;;16.70;59.00;;;;;;4915755;29;20641;-72
2022/09/18 03:28:46;;;;;;;2.20;1.17;;;16.70;59.00;;;;;;4918283;29;20528;-72
2022/09/18 03:31:15;;;;;;;0.90;0.60;;;16.70;58.90;;;;;;4931519;29;20464;-72
2022/09/18 03:33:45;;;;;;;2.30;1.00;;;16.70;59.00;;;;;;4933630;29;20944;-72
2022/09/18 03:36:15;;;;;;;1.10;0.70;;;16.60;58.90;;;;;;4904707;29;20515;-72
2022/09/18 03:38:44;;;;;;;0.77;0.53;;;16.70;58.90;;;;;;4917378;29;20449;-73
2022/09/18 03:41:12;;;;;;;1.90;0.63;;;16.70;58.90;;;;;;4917890;29;20557;-73
2022/09/18 03:43:40;;;;;;;1.00;0.60;;;16.70;58.90;;;;;;4914939;29;20477;-72
2022/09/18 03:46:11;;;;;;;1.20;0.60;;;16.70;58.80;;;;;;4910621;29;20687;-72
2022/09/18 03:48:40;;;;;;;0.70;0.60;;;16.70;58.80;;;;;;4917857;29;20459;-72
2022/09/18 03:51:09;;;;;;;1.00;0.90;;;16.60;58.70;;;;;;4905277;29;20448;-72
2022/09/18 03:53:40;;;;;;;1.50;0.87;;;16.60;58.80;;;;;;4933277;29;20455;-72
2022/09/18 03:56:27;;;;;;;2.03;0.73;;;16.60;59.00;;;;;;4917943;28;20489;-72
2022/09/18 03:59:05;;;;;;;1.20;0.60;;;16.60;59.10;;;;;;4905773;29;20612;-72
2022/09/18 04:01:39;;;;;;;1.37;0.80;;;16.60;58.90;;;;;;4909122;29;21034;-72
2022/09/18 04:04:26;;;;;;;1.40;0.63;;;16.60;59.00;;;;;;4935491;29;20476;-72
2022/09/18 04:06:54;;;;;;;0.93;0.70;;;16.60;58.90;;;;;;4927627;29;20527;-72
2022/09/18 04:09:42;;;;;;;0.80;0.70;;;16.60;59.00;;;;;;4920151;29;20449;-72
2022/09/18 04:12:11;;;;;;;1.37;0.60;;;16.60;59.10;;;;;;4920455;28;20481;-72
2022/09/18 04:14:43;;;;;;;1.13;0.77;;;16.60;59.20;;;;;;4916323;29;20465;-72
2022/09/18 04:17:11;;;;;;;0.83;0.57;;;16.60;59.40;;;;;;4913348;29;20459;-72
2022/09/18 04:19:41;;;;;;;0.60;0.60;;;16.60;59.10;;;;;;4911369;29;20969;-72
2022/09/18 04:22:11;;;;;;;1.00;0.70;;;16.60;59.10;;;;;;4916335;29;20499;-72
2022/09/18 04:24:40;;;;;;;1.00;0.80;;;16.60;59.10;;;;;;4912925;29;20479;-72
2022/09/18 04:27:10;;;;;;;2.47;0.97;;;16.60;59.20;;;;;;4922563;28;20484;-72
2022/09/18 04:29:39;;;;;;;1.30;0.70;;;16.60;59.10;;;;;;4927485;29;20851;-72
2022/09/18 04:32:09;;;;;;;2.70;0.83;;;16.60;59.40;;;;;;4910215;29;20523;-72
2022/09/18 04:34:38;;;;;;;1.00;0.50;;;16.60;59.30;;;;;;4927131;29;20495;-72
2022/09/18 04:37:06;;;;;;;2.40;0.90;;;16.60;59.40;;;;;;4909464;29;20484;-72
2022/09/18 04:39:39;;;;;;;1.83;0.73;;;16.60;59.30;;;;;;4894492;29;20440;-72
2022/09/18 04:42:13;;;;;;;0.80;0.80;;;16.60;59.60;;;;;;4897298;29;20503;-72
2022/09/18 04:44:44;;;;;;;1.03;0.60;;;16.60;59.50;;;;;;4911072;29;20516;-72
2022/09/18 04:47:13;;;;;;;1.57;0.90;;;16.60;59.60;;;;;;4904489;29;21019;-72
2022/09/18 04:49:42;;;;;;;1.30;0.60;;;16.50;59.70;;;;;;4904026;29;20813;-72
2022/09/18 04:52:10;;;;;;;1.23;1.10;;;16.50;59.70;;;;;;4928008;28;20897;-72
2022/09/18 04:54:39;;;;;;;1.53;0.70;;;16.50;59.70;;;;;;4912351;29;20452;-72
2022/09/18 04:57:10;;;;;;;1.13;0.60;;;16.50;59.60;;;;;;4911271;29;20612;-72
2022/09/18 04:59:43;;;;;;;2.37;0.77;;;16.50;59.70;;;;;;4908050;29;20445;-72
2022/09/18 05:02:14;;;;;;;3.90;1.03;;;16.50;59.90;;;;;;4924492;29;20643;-72
2022/09/18 05:04:43;;;;;;;1.80;0.83;;;16.50;60.00;;;;;;4911799;29;20477;-72
2022/09/18 05:07:25;;;;;;;1.63;0.90;;;16.50;59.80;;;;;;4908423;29;20469;-72
2022/09/18 05:09:54;;;;;;;1.80;0.80;;;16.50;59.90;;;;;;4927529;29;20809;-72
2022/09/18 05:12:24;;;;;;;1.70;0.67;;;16.50;59.70;;;;;;4899694;29;20496;-72
2022/09/18 05:14:53;;;;;;;3.77;0.90;;;16.50;59.70;;;;;;4911846;29;20504;-72
2022/09/18 05:17:23;;;;;;;0.80;0.57;;;16.50;59.90;;;;;;4907866;29;20533;-72
2022/09/18 05:20:04;;;;;;;1.00;0.80;;;16.50;59.60;;;;;;4899072;29;20476;-72
2022/09/18 05:22:38;;;;;;;1.93;0.80;;;16.50;59.70;;;;;;4913885;29;20471;-72
2022/09/18 05:25:12;;;;;;;0.97;0.90;;;16.50;59.60;;;;;;4911915;29;20525;-72
2022/09/18 05:27:43;;;;;;;2.40;0.97;;;16.50;59.40;;;;;;4905344;28;20478;-72
2022/09/18 05:30:13;;;;;;;2.57;1.00;;;16.50;59.30;;;;;;4923261;29;20491;-72
2022/09/18 05:33:02;;;;;;;2.73;1.00;;;16.50;59.40;;;;;;4920917;29;20484;-72
2022/09/18 05:35:33;;;;;;;2.00;1.17;;;16.50;59.40;;;;;;4906959;29;20995;-72
2022/09/18 05:38:02;;;;;;;3.33;0.90;;;16.50;59.30;;;;;;4926688;29;20840;-72
2022/09/18 05:40:35;;;;;;;2.00;0.90;;;16.50;59.30;;;;;;4912920;29;20968;-72
2022/09/18 05:43:06;;;;;;;2.63;0.87;;;16.50;59.40;;;;;;4899206;29;21011;-72
2022/09/18 05:45:36;;;;;;;3.20;1.23;;;16.50;59.40;;;;;;4912294;29;20457;-72
2022/09/18 05:48:15;;;;;;;3.70;1.03;;;16.50;59.40;;;;;;4907639;29;20445;-72
2022/09/18 05:50:45;;;;;;;1.83;0.90;;;16.40;59.40;;;;;;4910401;29;20999;-72
2022/09/18 05:53:18;;;;;;;4.80;1.30;;;16.50;60.60;;;;;;4913570;29;20445;-72
2022/09/18 05:55:58;;;;;;;3.03;1.07;;;16.50;59.40;;;;;;4915278;29;20572;-72
2022/09/18 05:58:28;;;;;;;2.87;0.87;;;16.40;59.40;;;;;;4904679;29;20453;-72
2022/09/18 06:01:00;;;;;;;1.90;1.23;;;16.50;59.50;;;;;;4904123;29;20541;-72
2022/09/18 06:03:42;;;;;;;3.17;0.87;;;16.40;59.40;;;;;;4909436;29;21030;-72
2022/09/18 06:06:15;;;;;;;2.77;1.10;;;16.50;59.40;;;;;;4916918;29;20551;-72
2022/09/18 06:08:44;;;;;;;2.57;1.20;;;16.40;59.40;;;;;;4928990;29;20448;-72
2022/09/18 06:11:15;;;;;;;2.53;1.63;;;16.40;59.20;;;;;;4889511;29;20595;-72
2022/09/18 06:13:47;;;;;;;1.47;0.87;;;16.40;59.20;;;;;;4912271;29;20442;-72
2022/09/18 06:16:16;;;;;;;1.70;0.90;;;16.40;59.30;;;;;;4920839;29;20469;-72
2022/09/18 06:19:01;;;;;;;2.10;1.17;;;16.40;59.10;;;;;;4902967;29;20442;-72
2022/09/18 06:21:30;;;;;;;3.00;1.10;;;16.40;59.20;;;;;;4919257;29;20893;-72
2022/09/18 06:23:59;;;;;;;2.50;1.30;;;16.40;59.20;;;;;;4891198;29;20994;-72
2022/09/18 06:26:51;;;;;;;1.23;0.80;;;16.40;59.20;;;;;;4912778;28;20472;-72
2022/09/18 06:29:24;;;;;;;1.63;0.93;;;16.40;59.20;;;;;;4926049;29;20465;-72
2022/09/18 06:32:14;;;;;;;1.10;0.60;;;16.40;59.10;;;;;;4901034;29;20473;-72
2022/09/18 06:34:43;;;;;;;3.87;2.30;;;16.40;59.10;;;;;;4888511;29;20485;-72
2022/09/18 06:37:15;;;;;;;3.00;1.53;;;16.40;59.00;;;;;;4921681;28;20456;-72
2022/09/18 06:39:46;;;;;;;1.90;0.90;;;16.40;59.10;;;;;;4916995;29;20864;-72
2022/09/18 06:42:29;;;;;;;2.80;1.30;;;16.40;59.10;;;;;;4893854;29;20476;-72
2022/09/18 06:45:10;;;;;;;2.10;1.00;;;16.40;59.10;;;;;;4903787;29;20470;-72
2022/09/18 06:47:39;;;;;;;2.73;0.90;;;16.40;59.10;;;;;;4913152;28;20838;-72
2022/09/18 06:50:09;;;;;;;1.47;1.00;;;16.40;59.30;;;;;;4902996;29;20444;-72
2022/09/18 06:52:38;;;;;;;3.90;2.03;;;16.40;59.40;;;;;;4902693;29;20500;-72
2022/09/18 06:55:07;;;;;;;2.17;1.23;;;16.40;59.40;;;;;;4911242;29;20465;-70
2022/09/18 06:57:35;;;;;;;2.30;1.00;;;16.40;59.50;;;;;;4897917;29;20484;-71
2022/09/18 07:00:05;;;;;;;1.80;1.00;;;16.30;59.50;;;;;;4910836;29;20484;-70
2022/09/18 07:02:39;;;;;;;2.40;0.90;;;16.30;59.40;;;;;;4896808;29;20516;-71
2022/09/18 07:05:27;;;;;;;1.33;1.07;;;16.30;59.50;;;;;;4915892;29;21028;-73
2022/09/18 07:07:56;;;;;;;1.03;0.70;;;16.30;59.70;;;;;;4889072;29;20570;-72
2022/09/18 07:10:25;;;;;;;3.00;1.00;;;16.30;59.60;;;;;;4908853;29;20522;-70
2022/09/18 07:12:56;;;;;;;4.40;1.10;;;16.30;59.50;;;;;;4891265;29;20571;-72
2022/09/18 07:15:25;;;;;;;3.83;1.27;;;16.30;59.70;;;;;;4908295;29;20512;-73
2022/09/18 07:17:57;;;;;;;1.57;1.00;;;16.30;59.60;;;;;;4903344;29;20837;-73
2022/09/18 07:20:28;;;;;;;2.60;0.80;;;16.30;59.60;;;;;;4907484;29;20449;-72
2022/09/18 07:22:59;;;;;;;2.57;0.93;;;16.30;59.70;;;;;;4890585;29;20552;-72
2022/09/18 07:25:40;;;;;;;2.70;1.00;;;16.30;59.90;;;;;;4898901;29;20481;-72
2022/09/18 07:28:11;;;;;;;1.27;1.00;;;16.30;61.00;;;;;;4920080;29;20455;-72
2022/09/18 07:30:46;;;;;;;3.83;0.93;;;16.30;60.00;;;;;;4903473;29;20449;-72
2022/09/18 07:33:16;;;;;;;1.50;0.90;;;16.30;60.10;;;;;;4901884;29;20450;-72
2022/09/18 07:35:48;;;;;;;1.43;0.77;;;16.30;60.40;;;;;;4921558;29;20457;-72
2022/09/18 07:38:19;;;;;;;1.80;0.87;;;16.30;60.30;;;;;;4897243;29;21059;-72
2022/09/18 07:40:53;;;;;;;2.50;1.40;;;16.30;60.40;;;;;;4902318;29;20998;-73
2022/09/18 07:43:29;;;;;;;2.03;0.80;;;16.30;60.30;;;;;;4909790;29;20448;-73
2022/09/18 07:46:00;;;;;;;1.13;0.90;;;16.30;60.50;;;;;;4894655;29;20473;-69
2022/09/18 07:48:34;;;;;;;2.30;0.90;;;16.30;60.30;;;;;;4914864;29;20485;-69
2022/09/18 07:51:14;;;;;;;1.60;1.10;;;16.30;60.30;;;;;;4924803;29;20473;-69
2022/09/18 07:53:48;;;;;;;5.70;1.17;;;16.30;60.30;;;;;;4917603;29;20465;-69
2022/09/18 07:56:25;;;;;;;1.23;1.10;;;16.30;60.30;;;;;;4896256;29;20504;-69
2022/09/18 07:58:55;;;;;;;2.50;0.90;;;16.30;60.30;;;;;;4924358;29;20444;-69
2022/09/18 08:01:27;;;;;;;1.97;1.40;;;16.30;60.30;;;;;;4932035;29;20444;-69
2022/09/18 08:03:59;;;;;;;1.80;1.10;;;16.30;60.30;;;;;;4999530;23;20504;-68
2022/09/18 08:06:36;;;;;;;1.40;0.97;;;16.30;60.30;;;;;;4920851;29;20465;-69
2022/09/18 08:09:14;;;;;;;1.37;0.90;;;16.30;60.40;;;;;;4910687;29;20475;-68
2022/09/18 08:12:02;;;;;;;2.20;0.90;;;16.30;60.40;;;;;;4914987;29;20817;-66
2022/09/18 08:14:31;;;;;;;2.70;1.13;;;16.30;60.30;;;;;;4899759;29;20829;-67
2022/09/18 08:17:22;;;;;;;1.47;1.10;;;16.20;60.30;;;;;;4911899;29;20485;-66
2022/09/18 08:20:10;;;;;;;1.13;0.70;;;16.20;60.40;;;;;;4891002;29;20453;-68
2022/09/18 08:22:44;;;;;;;3.10;1.00;;;16.20;60.60;;;;;;4904320;29;20560;-67
2022/09/18 08:25:14;;;;;;;2.70;1.10;;;16.20;60.50;;;;;;4903426;29;20836;-68
2022/09/18 08:27:47;;;;;;;1.20;0.90;;;16.30;61.50;;;;;;4898174;29;20474;-66
2022/09/18 08:30:22;;;;;;;2.43;1.10;;;16.20;61.30;;;;;;4893545;29;20449;-67
2022/09/18 08:32:59;;;;;;;2.80;1.07;;;16.30;60.90;;;;;;4917974;29;20465;-66
2022/09/18 08:35:30;;;;;;;1.17;0.90;;;16.30;60.90;;;;;;4894810;29;20652;-67
2022/09/18 08:38:06;;;;;;;2.20;1.10;;;16.30;61.10;;;;;;4894984;29;20493;-67
2022/09/18 08:41:00;;;;;;;2.30;0.83;;;16.30;60.80;;;;;;4903255;29;20918;-68
2022/09/18 08:43:45;;;;;;;1.20;0.90;;;16.30;60.40;;;;;;4913390;29;20790;-67
2022/09/18 08:46:20;;;;;;;1.47;1.03;;;16.30;60.30;;;;;;4900983;29;20851;-66
2022/09/18 08:48:57;;;;;;;1.20;0.90;;;16.40;60.40;;;;;;4923420;29;20471;-66
2022/09/18 08:51:33;;;;;;;3.23;0.90;;;16.40;60.40;;;;;;4899763;29;20536;-66
2022/09/18 08:54:16;;;;;;;1.43;0.90;;;16.40;60.40;;;;;;4904799;29;20809;-68
2022/09/18 08:57:03;;;;;;;1.33;0.90;;;16.40;60.40;;;;;;4903309;29;21083;-67
2022/09/18 08:59:41;;;;;;;2.50;1.20;;;16.40;60.40;;;;;;4920403;29;20533;-65
2022/09/18 09:02:32;;;;;;;1.97;0.97;;;16.50;60.50;;;;;;4896313;29;20473;-67
2022/09/18 09:05:06;;;;;;;2.70;1.43;;;16.50;60.50;;;;;;4905107;29;20560;-66
2022/09/18 09:08:03;;;;;;;1.57;0.80;;;16.50;60.50;;;;;;4898562;29;20973;-67
2022/09/18 09:10:47;;;;;;;0.90;0.70;;;16.40;60.40;;;;;;4887698;29;20441;-66
2022/09/18 09:13:57;;;;;;;1.23;1.00;;;16.50;60.50;;;;;;4884159;29;20457;-67
2022/09/18 09:16:40;;;;;;;3.37;1.70;;;16.50;60.50;;;;;;4900274;29;20972;-65
2022/09/18 09:19:25;;;;;;;1.77;1.00;;;16.50;60.50;;;;;;4895033;29;20892;-66
2022/09/18 09:22:02;;;;;;;1.33;0.80;;;16.40;60.50;;;;;;4894687;29;20480;-66
2022/09/18 09:24:37;;;;;;;3.03;1.03;;;16.40;60.40;;;;;;4894101;29;20863;-69
2022/09/18 09:27:18;;;;;;;2.10;0.90;;;16.40;60.40;;;;;;4904981;29;20481;-66
2022/09/18 09:30:15;;;;;;;1.57;1.10;;;16.40;60.40;;;;;;4884334;29;20499;-69
2022/09/18 09:33:10;;;;;;;1.83;1.10;;;16.40;60.40;;;;;;4918916;29;20814;-68
2022/09/18 09:36:05;;;;;;;1.47;0.90;;;16.40;60.40;;;;;;4910628;29;20997;-67
2022/09/18 09:38:54;;;;;;;2.03;1.10;;;16.40;60.40;;;;;;4912813;29;20433;-67
2022/09/18 09:41:34;;;;;;;3.43;0.77;;;16.40;60.40;;;;;;4890231;29;20482;-68
2022/09/18 09:44:23;;;;;;;1.80;1.13;;;16.30;60.30;;;;;;4911826;29;20794;-68
2022/09/18 09:47:04;;;;;;;2.17;1.27;;;16.30;60.40;;;;;;4919517;29;20496;-68
2022/09/18 09:49:40;;;;;;;1.13;1.03;;;16.30;60.30;;;;;;4913571;29;20816;-68
2022/09/18 09:52:16;;;;;;;2.37;1.03;;;16.30;60.30;;;;;;4892291;29;20481;-65
2022/09/18 09:54:45;;;;;;;1.67;1.10;;;16.30;60.30;;;;;;4909592;29;20525;-67
2022/09/18 09:57:25;;;;;;;2.43;1.00;;;16.30;60.30;;;;;;4888086;29;20477;-67
2022/09/18 10:00:05;;;;;;;2.20;1.07;;;16.30;60.30;;;;;;4892831;29;20445;-68
2022/09/18 10:03:00;;;;;;;2.00;1.10;;;16.20;60.30;;;;;;4907292;29;20483;-66
2022/09/18 10:05:39;;;;;;;1.97;0.80;;;16.20;60.50;;;;;;4907432;29;20481;-67
2022/09/18 10:08:15;;;;;;;1.23;1.13;;;16.20;60.50;;;;;;4916998;29;20539;-67
2022/09/18 10:10:51;;;;;;;1.00;0.90;;;16.20;60.70;;;;;;4902089;29;20452;-68
2022/09/18 10:13:24;;;;;;;1.50;1.00;;;16.20;60.60;;;;;;4901574;29;20554;-66
2022/09/18 10:16:01;;;;;;;1.70;1.30;;;16.20;60.90;;;;;;4902428;29;20465;-66
2022/09/18 10:18:35;;;;;;;2.00;1.30;;;16.20;60.80;;;;;;4900113;29;20449;-67
2022/09/18 10:21:10;;;;;;;2.07;1.23;;;16.20;60.90;;;;;;4914122;29;20454;-67
2022/09/18 10:23:41;;;;;;;1.60;1.23;;;16.20;61.00;;;;;;4917697;29;20845;-70
2022/09/18 10:26:14;;;;;;;1.80;1.20;;;16.20;60.90;;;;;;4880986;29;20513;-65
2022/09/18 10:28:44;;;;;;;2.70;1.40;;;16.20;60.80;;;;;;4910910;29;20418;-67
2022/09/18 10:31:14;;;;;;;3.53;1.63;;;16.20;60.80;;;;;;4895228;29;20449;-66
2022/09/18 10:33:52;;;;;;;2.20;1.40;;;16.20;60.90;;;;;;4908422;29;20440;-66
2022/09/18 10:36:31;;;;;;;1.90;1.43;;;16.20;61.10;;;;;;4914586;29;20462;-67
2022/09/18 10:39:17;;;;;;;1.53;1.20;;;16.20;61.10;;;;;;4904499;29;20794;-66
2022/09/18 10:41:49;;;;;;;3.63;1.20;;;16.20;61.30;;;;;;4887660;29;20481;-68
2022/09/18 10:44:26;;;;;;;2.20;1.37;;;16.20;61.40;;;;;;4899575;29;20450;-67
2022/09/18 10:47:05;;;;;;;1.23;0.90;;;16.20;61.40;;;;;;4890116;29;20844;-67
2022/09/18 10:49:40;;;;;;;2.07;1.40;;;16.20;61.70;;;;;;4889917;29;20460;-66
2022/09/18 10:52:37;;;;;;;2.50;1.50;;;16.20;61.60;;;;;;4910670;29;21000;-67
2022/09/18 10:55:15;;;;;;;2.17;1.23;;;16.20;61.60;;;;;;4874565;29;20483;-66
2022/09/18 10:58:11;;;;;;;3.43;1.20;;;16.20;61.60;;;;;;4907598;29;20483;-67
2022/09/18 11:00:48;;;;;;;5.20;1.33;;;16.20;61.60;;;;;;4919573;29;20441;-67
2022/09/18 11:03:37;;;;;;;1.33;1.10;;;16.20;61.80;;;;;;4903307;29;20798;-68
2022/09/18 11:06:17;;;;;;;3.47;1.50;;;16.20;61.70;;;;;;4891898;29;20488;-68
2022/09/18 11:08:49;;;;;;;2.10;1.27;;;16.20;61.70;;;;;;4895103;29;20830;-66
2022/09/18 11:11:29;;;;;;;2.17;1.57;;;16.20;61.70;;;;;;4905731;29;20869;-66
2022/09/18 11:14:04;;;;;;;3.57;1.20;;;16.20;61.70;;;;;;4892324;29;20462;-66
2022/09/18 11:16:51;;;;;;;5.00;1.70;;;16.20;61.70;;;;;;4903073;29;21075;-67
2022/09/18 11:19:27;;;;;;;3.20;1.20;;;16.20;61.90;;;;;;4899057;29;20448;-65
2022/09/18 11:22:02;;;;;;;1.27;1.10;;;16.20;61.60;;;;;;4883340;29;20561;-66
2022/09/18 11:24:38;;;;;;;1.90;1.30;;;16.20;61.70;;;;;;4912506;29;20466;-66
2022/09/18 11:27:20;;;;;;;1.53;1.43;;;16.20;61.50;;;;;;4886316;29;20509;-67
2022/09/18 11:29:51;;;;;;;1.70;1.10;;;16.20;61.60;;;;;;4909541;29;20437;-67
2022/09/18 11:32:25;;;;;;;1.57;1.10;;;16.20;61.60;;;;;;4913147;29;21068;-66
2022/09/18 11:35:02;;;;;;;1.70;1.60;;;16.20;61.60;;;;;;4899528;29;20907;-68
2022/09/18 11:37:39;;;;;;;3.67;1.80;;;16.20;61.70;;;;;;4899923;29;20471;-67
2022/09/18 11:40:17;;;;;;;1.67;1.23;;;16.20;61.70;;;;;;4921661;29;20441;-66
2022/09/18 11:42:49;;;;;;;2.60;1.43;;;16.20;61.50;;;;;;4889572;29;20519;-68
2022/09/18 11:45:33;;;;;;;1.60;1.50;;;16.20;61.90;;;;;;4918675;29;20468;-68
2022/09/18 11:48:15;;;;;;;1.90;1.37;;;16.20;62.10;;;;;;4927732;29;20926;-67
2022/09/18 11:50:46;;;;;;;1.50;1.30;;;16.20;62.10;;;;;;4920668;29;20512;-67
2022/09/18 11:53:19;;;;;;;2.00;1.30;;;16.20;62.10;;;;;;4887952;29;20789;-67
2022/09/18 11:55:53;;;;;;;2.03;1.60;;;16.20;62.20;;;;;;4893068;29;20502;-67
2022/09/18 11:58:30;;;;;;;1.30;1.20;;;16.20;62.40;;;;;;4904658;29;20440;-68
2022/09/18 12:01:10;;;;;;;3.13;1.80;;;16.20;62.50;;;;;;4906060;29;20967;-67
2022/09/18 12:03:46;;;;;;;2.40;1.50;;;16.20;62.40;;;;;;4896902;29;20465;-68
2022/09/18 12:06:26;;;;;;;3.10;1.37;;;16.20;62.50;;;;;;4900594;29;20872;-68
2022/09/18 12:09:00;;;;;;;1.93;1.10;;;16.20;62.50;;;;;;4904809;29;20429;-67
2022/09/18 12:11:37;;;;;;;4.20;1.17;;;16.20;62.60;;;;;;4904323;29;20810;-68
2022/09/18 12:14:14;;;;;;;3.83;1.53;;;16.30;62.80;;;;;;4901777;29;20451;-66
2022/09/18 12:16:57;;;;;;;1.87;1.40;;;16.30;62.50;;;;;;4907918;29;20531;-66
2022/09/18 12:19:37;;;;;;;1.67;1.37;;;16.30;62.80;;;;;;4898453;29;20543;-66
2022/09/18 12:22:14;;;;;;;1.40;1.13;;;16.30;63.10;;;;;;4899691;29;20494;-67
2022/09/18 12:24:44;;;;;;;5.87;1.20;;;16.30;62.80;;;;;;4914245;29;20949;-66
2022/09/18 12:27:28;;;;;;;2.70;1.57;;;16.30;63.00;;;;;;4910277;29;20488;-66
2022/09/18 12:30:08;;;;;;;2.57;1.17;;;16.20;63.00;;;;;;4897582;29;20952;-66
2022/09/18 12:33:10;;;;;;;1.47;1.37;;;16.30;62.90;;;;;;4896084;29;20481;-65
2022/09/18 12:36:03;;;;;;;1.37;1.10;;;16.30;62.80;;;;;;4905288;29;20475;-66
2022/09/18 12:38:46;;;;;;;1.97;1.07;;;16.30;62.90;;;;;;4910723;29;20441;-66
2022/09/18 12:41:43;;;;;;;2.43;1.57;;;16.30;62.80;;;;;;4912677;29;20989;-66
2022/09/18 12:44:45;;;;;;;2.70;1.30;;;16.30;62.80;;;;;;4910911;29;20508;-67
2022/09/18 12:47:34;;;;;;;1.80;1.40;;;16.30;62.80;;;;;;4872963;29;20474;-68
2022/09/18 12:50:22;;;;;;;1.30;1.20;;;16.30;62.70;;;;;;4912279;29;20441;-67
2022/09/18 12:53:01;;;;;;;3.17;1.70;;;16.30;62.80;;;;;;4887593;29;20466;-66
2022/09/18 12:55:58;;;;;;;1.87;1.30;;;16.30;63.20;;;;;;4897087;29;20568;-66
2022/09/18 12:58:46;;;;;;;2.10;1.60;;;16.30;63.20;;;;;;4906851;29;20551;-68
2022/09/18 13:01:21;;;;;;;4.07;1.67;;;16.30;63.10;;;;;;4896761;29;20525;-68
2022/09/18 13:03:52;;;;;;;1.30;1.20;;;16.30;63.40;;;;;;4905301;29;20450;-67
2022/09/18 13:06:30;;;;;;;3.77;1.73;;;16.30;63.50;;;;;;4910256;29;20481;-68
2022/09/18 13:09:08;;;;;;;3.03;1.80;;;16.30;63.30;;;;;;4893352;29;20460;-67
2022/09/18 13:11:42;;;;;;;1.50;1.40;;;16.30;63.30;;;;;;4889083;29;20450;-67
2022/09/18 13:14:17;;;;;;;2.47;1.60;;;16.30;63.50;;;;;;4911490;29;20449;-68
2022/09/18 13:16:50;;;;;;;3.30;2.00;;;16.30;63.60;;;;;;4912101;29;20495;-67
2022/09/18 13:19:27;;;;;;;2.17;1.30;;;16.30;63.60;;;;;;4903329;29;20455;-67
2022/09/18 13:21:59;;;;;;;1.30;1.20;;;16.30;63.70;;;;;;4907701;29;20479;-72
2022/09/18 13:24:32;;;;;;;1.80;1.20;;;16.30;63.80;;;;;;4904094;29;20560;-71
2022/09/18 13:27:04;;;;;;;2.60;1.83;;;16.30;63.70;;;;;;4880528;29;20481;-71
2022/09/18 13:29:55;;;;;;;1.17;1.07;;;16.30;63.70;;;;;;4911732;29;20434;-71
2022/09/18 13:32:37;;;;;;;1.60;1.40;;;16.30;63.60;;;;;;4918090;29;20595;-73
2022/09/18 13:35:19;;;;;;;2.53;1.60;;;16.30;63.90;;;;;;4905232;29;20480;-72